This is the latest recevied weather packets stored in our database for station/object KB0RPJ. If no packets are shown the sender has not sent any weather packets the latest 10 day(s).
| Time | Temp. | Humidity | Pressure | Rain* | Wind** | Luminosity | Snow |
|---|---|---|---|---|---|---|---|
| 1777992905 | 11.11° C | 60% | 1010.9 hPa | 0 mm | - | 102 W/m² | - |
| 1777992609 | 11.11° C | 60% | 1010.9 hPa | 0 mm | - | 103 W/m² | - |
| 1777992304 | 11.11° C | 60% | 1010.9 hPa | 0 mm | - | 113 W/m² | - |
| 1777992005 | 11.11° C | 61% | 1010.7 hPa | 0 mm | - | 118 W/m² | - |
| 1777991705 | 11.11° C | 61% | 1010.6 hPa | 0 mm | - | 134 W/m² | - |
| 1777991404 | 11.11° C | 61% | 1010.6 hPa | 0 mm | - | 155 W/m² | - |
| 1777991105 | 11.11° C | 62% | 1010.6 hPa | 0 mm | - | 165 W/m² | - |
| 1777990806 | 11.11° C | 63% | 1010.8 hPa | 0 mm | - | 144 W/m² | - |
| 1777990504 | 10.56° C | 64% | 1010.9 hPa | 0 mm | - | 123 W/m² | - |
| 1777989904 | 10.56° C | 65% | 1011.3 hPa | 0 mm | - | 81 W/m² | - |
| 1777989604 | 10.56° C | 64% | 1011.6 hPa | 0 mm | - | 59 W/m² | - |
| 1777989305 | 10.56° C | 64% | 1011.7 hPa | 0 mm | - | 45 W/m² | - |
| 1777989005 | 11.11° C | 65% | 1011.6 hPa | 0 mm | - | 39 W/m² | - |
| 1777988705 | 11.11° C | 65% | 1011.3 hPa | 0 mm | - | 29 W/m² | - |
| 1777988406 | 11.11° C | 63% | 1010.9 hPa | 0 mm | - | 28 W/m² | - |
| 1777988116 | 11.11° C | 61% | 1010.7 hPa | 0 mm | - | 27 W/m² | - |
| 1777987805 | 11.11° C | 61% | 1010.4 hPa | 0 mm | - | 32 W/m² | - |
| 1777987505 | 10.56° C | 62% | 1010.3 hPa | 0 mm | - | 36 W/m² | - |
| 1777987205 | 10.56° C | 64% | 1010.1 hPa | 0 mm | - | 30 W/m² | - |
| 1777986918 | 10.56° C | 64% | 1010.1 hPa | 0 mm | - | 25 W/m² | - |
| 1777986606 | 10.56° C | 65% | 1010 hPa | 0 mm | - | 21 W/m² | - |
| 1777986305 | 10.56° C | 64% | 1009.8 hPa | 0 mm | - | 21 W/m² | - |
| 1777986006 | 10.56° C | 63% | 1009.5 hPa | 0 mm | - | 21 W/m² | - |
| 1777985706 | 10° C | 63% | 1009.2 hPa | 0 mm | - | 24 W/m² | - |
| 1777985409 | 10° C | 63% | 1009.1 hPa | 0 mm | - | 29 W/m² | - |
* Rain latest hour (hover to see other rain measurements)
** Current wind speed in m/s (hover to see current wind gust speed)